Aérodrome :
LOGIN :

S'inscrire | Disclaimer

   EN    FR    IT 

 










Légende :    VFR   VFR Marginal   IFR   IFR Intensif   IFR Très Intensif
Visi : 
Plafond : 
>= 8 km
>= 3000ft
5 à 8 km
1000 à 3000 ft
1500m à 5 km
500 à 1000 ft
800 à 1500m
200 à 500 ft
< 800m
< 200 ft
Symboles :   Orages  Brouillard  Fortes neiges  Fortes précipitations  Vent > 20 kt
SIGMETs :   Divers  Orages  Givrage  Turbulence  Onde Orograph.  Cendres Volcan.






- Altitude de l'aérodrome : 1046 ft
- Code IATA : NUE


EDDN - Nuremberg

DERNIER METAR :
  • 231850Z AUTO 01007KT CAVOK 19/11 Q1015 BECMG 25012KT SHRA SCT045CB

METARs EXPIRÉS :
  • 231820Z AUTO 02005KT CAVOK 19/11 Q1015 TEMPO 24010KT SHRA SCT040CB
  • 231750Z AUTO 01005KT CAVOK 20/10 Q1014 TEMPO SHRA SCT040CB
  • 231720Z AUTO 01005KT CAVOK 20/10 Q1014 NOSIG
  • 231650Z AUTO 35008KT 320V020 CAVOK 21/10 Q1014 NOSIG
  • 231620Z AUTO 35006KT 310V010 CAVOK 21/10 Q1014 NOSIG
  • 231550Z AUTO 04005KT 010V090 CAVOK 21/09 Q1014 NOSIG
  • 231520Z AUTO 31006KT 250V350 CAVOK 21/10 Q1014 NOSIG
  • 231450Z AUTO 34006KT 270V040 CAVOK 22/10 Q1014 NOSIG

TAF TAF EDDN
Valide du 23 à 18h jusqu'au 24 à 18h UTC


231700Z 2318/2418 VRB03KT CAVOK
PROB40
TEMPO 2318/2322 SHRA SCT040CB
TEMPO 2322/2402 26020G35KT 3000 TSRA SCT012 BKN020CB
TEMPO 2402/2410 4000 -RADZ BKN012
PROB30
TEMPO 2404/2408 2000 RADZ BKN006
BECMG 2410/2412 26005KT
PROB30
TEMPO 2412/2417 TSRA BKN015 SCT020CB



MET'MAP, la Météo Aéronautique d'un coup d'oeil ! - Copyright ORBIFLY Décembre 2007 - Disclaimer

ORBIFLY MET'MAP TEAM :

Programmation & Développement : Alexandra Zaïnal
Sur une idée originale de : Baudouin d'Aumeries
Soutien technique & logistique : Manuel Goepfert
Assistance : Marc-Olivier Méhu




SOURCES & CREDITS :

   NOAA